PWSweather.com
Personal Weather Stations
Station Observations
KFLSEBAS1
Sebastian Highlands, Sebastian, FL 32958-4362

Sebastian HighlandsSebastian, FL 32958-4362

Lat: 27.8, Lon: -80.48

Elevation: 23

Station Type: Davis Weather Monitor II

Latest ConditionsUpdated 3:55:38 AM EDT Sunday, Apr 23, 2017
Currently Today's Max Today's Min Today's Average
Temperature 76.2°F24.6°C 76.8°F24.9°C 76.2°F24.6°C 76.6°F24.8°C
Dew Point 73.1°F22.8°C 73.9°F23.3°C 69.2°F20.7°C 72.0°F22.2°C
Winds Calm Calm 4.0 mph E6.4 kmh E - 0.4 mph 0.6 kmh
Wind Gusts -- 11.0 mph17.7 kmh - -
Humidity 90% 91% 78% 86%
Pressure 29.86 in1011.2 mb 29.92 in1013.2 mb 29.86 in1011.2 mb -
Hour Temp Dew Point Humidity Winds Wind Gusts Pressure Precip Precip Rate Daily Precip Total
03:55 AM 76.2°F24.6°C 73.1°F22.8°C 90% Calm Calm -- 29.86 in1011.2 mb 0.00 in0.0 mm 0.00 in0.0 mm 0.00 in0.0 mm
03:50 AM 76.3°F24.6°C 72.8°F22.7°C 89% Calm Calm -- 29.86 in1011.2 mb 0.00 in0.0 mm 0.00 in0.0 mm 0.00 in0.0 mm
03:45 AM 76.4°F24.7°C 73.3°F22.9°C 90% Calm Calm -- 29.86 in1011.2 mb 0.00 in0.0 mm 0.00 in0.0 mm 0.00 in0.0 mm
03:40 AM 76.5°F24.7°C 73.0°F22.8°C 89% Calm Calm -- 29.86 in1011.2 mb 0.00 in0.0 mm 0.00 in0.0 mm 0.00 in0.0 mm
03:35 AM 76.6°F24.8°C 72.5°F22.5°C 87% Calm Calm -- 29.87 in1011.5 mb 0.00 in0.0 mm 0.00 in0.0 mm 0.00 in0.0 mm
03:30 AM 76.7°F24.8°C 72.2°F22.3°C 86% Calm Calm -- 29.86 in1011.2 mb 0.00 in0.0 mm 0.00 in0.0 mm 0.00 in0.0 mm
03:25 AM 76.7°F24.8°C 72.2°F22.3°C 86% Calm Calm -- 29.87 in1011.5 mb 0.00 in0.0 mm 0.00 in0.0 mm 0.00 in0.0 mm
03:20 AM 76.8°F24.9°C 72.0°F22.2°C 85% Calm Calm -- 29.87 in1011.5 mb 0.00 in0.0 mm 0.00 in0.0 mm 0.00 in0.0 mm
03:15 AM 76.8°F24.9°C 71.6°F22.0°C 84% Calm Calm -- 29.88 in1011.9 mb 0.00 in0.0 mm 0.00 in0.0 mm 0.00 in0.0 mm
03:10 AM 76.7°F24.8°C 71.5°F21.9°C 84% Calm Calm -- 29.87 in1011.5 mb 0.00 in0.0 mm 0.00 in0.0 mm 0.00 in0.0 mm
03:05 AM 76.7°F24.8°C 71.2°F21.8°C 83% Calm Calm -- 29.88 in1011.9 mb 0.00 in0.0 mm 0.00 in0.0 mm 0.00 in0.0 mm
03:00 AM 76.7°F24.8°C 73.9°F23.3°C 91% Calm Calm -- 29.88 in1011.9 mb 0.00 in0.0 mm 0.00 in0.0 mm 0.00 in0.0 mm
02:55 AM 76.7°F24.8°C 73.9°F23.3°C 91% Calm Calm -- 29.88 in1011.9 mb 0.00 in0.0 mm 0.00 in0.0 mm 0.00 in0.0 mm
02:50 AM 76.7°F24.8°C 73.9°F23.3°C 91% Calm Calm -- 29.89 in1012.2 mb 0.00 in0.0 mm 0.00 in0.0 mm 0.00 in0.0 mm
02:45 AM 76.7°F24.8°C 73.6°F23.1°C 90% Calm Calm -- 29.89 in1012.2 mb 0.00 in0.0 mm 0.00 in0.0 mm 0.00 in0.0 mm
02:40 AM 76.7°F24.8°C 72.5°F22.5°C 87% Calm Calm -- 29.90 in1012.5 mb 0.00 in0.0 mm 0.00 in0.0 mm 0.00 in0.0 mm
02:35 AM 76.7°F24.8°C 72.2°F22.3°C 86% Calm Calm -- 29.90 in1012.5 mb 0.00 in0.0 mm 0.00 in0.0 mm 0.00 in0.0 mm
02:30 AM 76.7°F24.8°C 72.2°F22.3°C 86% Calm Calm -- 29.90 in1012.5 mb 0.00 in0.0 mm 0.00 in0.0 mm 0.00 in0.0 mm
02:25 AM 76.7°F24.8°C 72.2°F22.3°C 86% Calm Calm -- 29.89 in1012.2 mb 0.00 in0.0 mm 0.00 in0.0 mm 0.00 in0.0 mm
02:20 AM 76.7°F24.8°C 71.9°F22.2°C 85% Calm Calm -- 29.90 in1012.5 mb 0.00 in0.0 mm 0.00 in0.0 mm 0.00 in0.0 mm
02:15 AM 76.7°F24.8°C 72.5°F22.5°C 87% Calm Calm -- 29.89 in1012.2 mb 0.00 in0.0 mm 0.00 in0.0 mm 0.00 in0.0 mm
02:10 AM 76.7°F24.8°C 72.2°F22.3°C 86% Calm Calm -- 29.90 in1012.5 mb 0.00 in0.0 mm 0.00 in0.0 mm 0.00 in0.0 mm
02:05 AM 76.6°F24.8°C 71.8°F22.1°C 85% Calm Calm -- 29.89 in1012.2 mb 0.00 in0.0 mm 0.00 in0.0 mm 0.00 in0.0 mm
02:00 AM 76.6°F24.8°C 72.8°F22.7°C 88% Calm Calm -- 29.89 in1012.2 mb 0.00 in0.0 mm 0.00 in0.0 mm 0.00 in0.0 mm
01:55 AM 76.6°F24.8°C 71.8°F22.1°C 85% Calm Calm 6.0 mph9.7 kmh 29.89 in1012.2 mb 0.00 in0.0 mm 0.00 in0.0 mm 0.00 in0.0 mm
01:50 AM 76.6°F24.8°C 72.8°F22.7°C 88% Calm Calm 6.0 mph9.7 kmh 29.89 in1012.2 mb 0.00 in0.0 mm 0.00 in0.0 mm 0.00 in0.0 mm
01:45 AM 76.6°F24.8°C 72.5°F22.5°C 87% Calm Calm 6.0 mph9.7 kmh 29.89 in1012.2 mb 0.00 in0.0 mm 0.00 in0.0 mm 0.00 in0.0 mm
01:40 AM 76.5°F24.7°C 72.4°F22.4°C 87% Calm Calm 6.0 mph9.7 kmh 29.89 in1012.2 mb 0.00 in0.0 mm 0.00 in0.0 mm 0.00 in0.0 mm
01:35 AM 76.5°F24.7°C 72.4°F22.4°C 87% Calm Calm 6.0 mph9.7 kmh 29.89 in1012.2 mb 0.00 in0.0 mm 0.00 in0.0 mm 0.00 in0.0 mm
01:30 AM 76.5°F24.7°C 71.3°F21.8°C 84% 3.0 mph SE4.8 kmh SE 6.0 mph9.7 kmh 29.89 in1012.2 mb 0.00 in0.0 mm 0.00 in0.0 mm 0.00 in0.0 mm
01:25 AM 76.4°F24.7°C 70.9°F21.6°C 83% 1.0 mph E1.6 kmh E 6.0 mph9.7 kmh 29.89 in1012.2 mb 0.00 in0.0 mm 0.00 in0.0 mm 0.00 in0.0 mm
01:20 AM 76.5°F24.7°C 71.7°F22.1°C 85% Calm Calm 6.0 mph9.7 kmh 29.90 in1012.5 mb 0.00 in0.0 mm 0.00 in0.0 mm 0.00 in0.0 mm
01:15 AM 76.5°F24.7°C 72.0°F22.2°C 86% Calm Calm 6.0 mph9.7 kmh 29.89 in1012.2 mb 0.00 in0.0 mm 0.00 in0.0 mm 0.00 in0.0 mm
01:10 AM 76.5°F24.7°C 72.7°F22.6°C 88% 3.0 mph SE4.8 kmh SE 6.0 mph9.7 kmh 29.89 in1012.2 mb 0.00 in0.0 mm 0.00 in0.0 mm 0.00 in0.0 mm
01:05 AM 76.6°F24.8°C 71.8°F22.1°C 85% Calm Calm 3.0 mph4.8 kmh 29.90 in1012.5 mb 0.00 in0.0 mm 0.00 in0.0 mm 0.00 in0.0 mm
01:00 AM 76.6°F24.8°C 71.8°F22.1°C 85% Calm Calm -- 29.90 in1012.5 mb 0.00 in0.0 mm 0.00 in0.0 mm 0.00 in0.0 mm
12:55 AM 76.6°F24.8°C 71.8°F22.1°C 85% 2.0 mph ESE3.2 kmh ESE 11.0 mph17.7 kmh 29.90 in1012.5 mb 0.00 in0.0 mm 0.00 in0.0 mm 0.00 in0.0 mm
12:50 AM 76.7°F24.8°C 71.2°F21.8°C 83% 2.0 mph ESE3.2 kmh ESE 11.0 mph17.7 kmh 29.90 in1012.5 mb 0.00 in0.0 mm 0.00 in0.0 mm 0.00 in0.0 mm
12:45 AM 76.7°F24.8°C 70.4°F21.3°C 81% Calm Calm 11.0 mph17.7 kmh 29.90 in1012.5 mb 0.00 in0.0 mm 0.00 in0.0 mm 0.00 in0.0 mm
12:40 AM 76.7°F24.8°C 70.4°F21.3°C 81% 1.0 mph SE1.6 kmh SE 11.0 mph17.7 kmh 29.91 in1012.9 mb 0.00 in0.0 mm 0.00 in0.0 mm 0.00 in0.0 mm
12:35 AM 76.7°F24.8°C 70.4°F21.3°C 81% 1.0 mph SE1.6 kmh SE 11.0 mph17.7 kmh 29.91 in1012.9 mb 0.00 in0.0 mm 0.00 in0.0 mm 0.00 in0.0 mm
12:30 AM 76.7°F24.8°C 70.4°F21.3°C 81% Calm Calm 11.0 mph17.7 kmh 29.92 in1013.2 mb 0.00 in0.0 mm 0.00 in0.0 mm 0.00 in0.0 mm
12:25 AM 76.7°F24.8°C 70.4°F21.3°C 81% Calm Calm 11.0 mph17.7 kmh 29.92 in1013.2 mb 0.00 in0.0 mm 0.00 in0.0 mm 0.00 in0.0 mm
12:20 AM 76.7°F24.8°C 70.4°F21.3°C 81% Calm Calm 11.0 mph17.7 kmh 29.91 in1012.9 mb 0.00 in0.0 mm 0.00 in0.0 mm 0.00 in0.0 mm
12:15 AM 76.7°F24.8°C 70.8°F21.6°C 82% 2.0 mph SE3.2 kmh SE 11.0 mph17.7 kmh 29.91 in1012.9 mb 0.00 in0.0 mm 0.00 in0.0 mm 0.00 in0.0 mm
12:10 AM 76.7°F24.8°C 70.8°F21.6°C 82% 1.0 mph S1.6 kmh S 11.0 mph17.7 kmh 29.90 in1012.5 mb 0.00 in0.0 mm 0.00 in0.0 mm 0.00 in0.0 mm
12:05 AM 76.7°F24.8°C 73.2°F22.9°C 89% 4.0 mph E6.4 kmh E 6.0 mph9.7 kmh 29.90 in1012.5 mb 0.00 in0.0 mm 0.00 in0.0 mm 0.00 in0.0 mm
12:00 AM 76.6°F24.8°C 69.2°F20.7°C 78% Calm Calm -- 29.91 in1012.9 mb 0.00 in0.0 mm 0.00 in0.0 mm 0.00 in0.0 mm